sensor_id;sensor_type;location;lat;lon;timestamp;P1;durP1;ratioP1;P2;durP2;ratioP2
42018;SDS011;27703;51.980;5.848;2023-07-28T00:02:23;4.90;;;4.45;;
42018;SDS011;27703;51.980;5.848;2023-07-28T00:04:48;5.25;;;4.85;;
42018;SDS011;27703;51.980;5.848;2023-07-28T00:07:14;5.85;;;5.45;;
42018;SDS011;27703;51.980;5.848;2023-07-28T00:09:40;6.53;;;5.97;;
42018;SDS011;27703;51.980;5.848;2023-07-28T00:12:05;5.28;;;4.88;;
42018;SDS011;27703;51.980;5.848;2023-07-28T00:14:31;6.65;;;6.03;;
42018;SDS011;27703;51.980;5.848;2023-07-28T00:16:57;4.35;;;4.05;;
42018;SDS011;27703;51.980;5.848;2023-07-28T00:19:22;6.95;;;6.28;;
42018;SDS011;27703;51.980;5.848;2023-07-28T00:21:48;7.05;;;6.35;;
42018;SDS011;27703;51.980;5.848;2023-07-28T00:24:15;7.13;;;5.90;;
42018;SDS011;27703;51.980;5.848;2023-07-28T00:26:41;6.50;;;5.88;;
42018;SDS011;27703;51.980;5.848;2023-07-28T00:29:06;5.88;;;5.38;;
42018;SDS011;27703;51.980;5.848;2023-07-28T00:31:32;7.22;;;6.63;;
42018;SDS011;27703;51.980;5.848;2023-07-28T00:33:58;6.68;;;6.07;;
42018;SDS011;27703;51.980;5.848;2023-07-28T00:36:24;5.70;;;5.03;;
42018;SDS011;27703;51.980;5.848;2023-07-28T00:38:50;7.65;;;6.95;;
42018;SDS011;27703;51.980;5.848;2023-07-28T00:41:15;7.18;;;6.47;;
42018;SDS011;27703;51.980;5.848;2023-07-28T00:43:41;5.32;;;4.82;;
42018;SDS011;27703;51.980;5.848;2023-07-28T00:46:07;6.95;;;6.35;;
42018;SDS011;27703;51.980;5.848;2023-07-28T00:48:35;6.57;;;6.03;;
42018;SDS011;27703;51.980;5.848;2023-07-28T00:51:00;5.68;;;5.22;;
42018;SDS011;27703;51.980;5.848;2023-07-28T00:53:26;6.07;;;5.25;;
42018;SDS011;27703;51.980;5.848;2023-07-28T00:55:53;6.35;;;5.75;;
42018;SDS011;27703;51.980;5.848;2023-07-28T00:58:20;6.68;;;6.07;;
42018;SDS011;27703;51.980;5.848;2023-07-28T01:00:46;7.18;;;6.57;;
42018;SDS011;27703;51.980;5.848;2023-07-28T01:03:12;6.63;;;6.03;;
42018;SDS011;27703;51.980;5.848;2023-07-28T01:05:48;6.68;;;6.07;;
42018;SDS011;27703;51.980;5.848;2023-07-28T01:08:32;5.90;;;5.40;;
42018;SDS011;27703;51.980;5.848;2023-07-28T01:11:04;6.18;;;5.57;;
42018;SDS011;27703;51.980;5.848;2023-07-28T01:13:29;7.28;;;5.68;;
42018;SDS011;27703;51.980;5.848;2023-07-28T01:15:55;5.80;;;5.32;;
42018;SDS011;27703;51.980;5.848;2023-07-28T01:18:20;5.25;;;4.85;;
42018;SDS011;27703;51.980;5.848;2023-07-28T01:20:46;5.47;;;4.90;;
42018;SDS011;27703;51.980;5.848;2023-07-28T01:23:19;5.75;;;4.88;;
42018;SDS011;27703;51.980;5.848;2023-07-28T01:28:32;6.07;;;5.47;;
42018;SDS011;27703;51.980;5.848;2023-07-28T01:31:00;5.95;;;5.13;;
42018;SDS011;27703;51.980;5.848;2023-07-28T01:33:27;6.35;;;5.78;;
42018;SDS011;27703;51.980;5.848;2023-07-28T01:35:53;7.93;;;6.90;;
42018;SDS011;27703;51.980;5.848;2023-07-28T01:38:19;7.90;;;6.82;;
42018;SDS011;27703;51.980;5.848;2023-07-28T01:40:44;8.68;;;7.30;;
42018;SDS011;27703;51.980;5.848;2023-07-28T01:43:10;7.88;;;7.05;;
42018;SDS011;27703;51.980;5.848;2023-07-28T01:45:35;8.38;;;7.50;;
42018;SDS011;27703;51.980;5.848;2023-07-28T01:48:01;8.88;;;7.30;;
42018;SDS011;27703;51.980;5.848;2023-07-28T01:50:26;5.88;;;4.80;;
42018;SDS011;27703;51.980;5.848;2023-07-28T01:52:52;10.52;;;6.70;;
42018;SDS011;27703;51.980;5.848;2023-07-28T01:55:18;9.27;;;7.43;;
42018;SDS011;27703;51.980;5.848;2023-07-28T01:57:49;9.32;;;8.18;;
42018;SDS011;27703;51.980;5.848;2023-07-28T02:00:19;10.65;;;8.05;;
42018;SDS011;27703;51.980;5.848;2023-07-28T02:02:46;7.68;;;6.82;;
42018;SDS011;27703;51.980;5.848;2023-07-28T02:05:12;10.65;;;7.82;;
42018;SDS011;27703;51.980;5.848;2023-07-28T02:07:37;10.45;;;8.00;;
42018;SDS011;27703;51.980;5.848;2023-07-28T02:10:03;11.07;;;8.95;;
42018;SDS011;27703;51.980;5.848;2023-07-28T02:12:29;9.20;;;7.45;;
42018;SDS011;27703;51.980;5.848;2023-07-28T02:14:55;10.32;;;7.65;;
42018;SDS011;27703;51.980;5.848;2023-07-28T02:17:20;9.88;;;7.47;;
42018;SDS011;27703;51.980;5.848;2023-07-28T02:19:46;8.30;;;7.28;;
42018;SDS011;27703;51.980;5.848;2023-07-28T02:22:12;11.07;;;8.25;;
42018;SDS011;27703;51.980;5.848;2023-07-28T02:24:38;10.63;;;7.65;;
42018;SDS011;27703;51.980;5.848;2023-07-28T02:27:03;11.77;;;7.82;;
42018;SDS011;27703;51.980;5.848;2023-07-28T02:29:29;10.25;;;8.35;;
42018;SDS011;27703;51.980;5.848;2023-07-28T02:31:55;13.80;;;8.23;;
42018;SDS011;27703;51.980;5.848;2023-07-28T02:34:20;11.32;;;8.35;;
42018;SDS011;27703;51.980;5.848;2023-07-28T02:36:46;10.57;;;8.18;;
42018;SDS011;27703;51.980;5.848;2023-07-28T02:39:12;13.25;;;9.45;;
42018;SDS011;27703;51.980;5.848;2023-07-28T02:41:38;12.55;;;8.90;;
42018;SDS011;27703;51.980;5.848;2023-07-28T02:44:03;14.13;;;9.07;;
42018;SDS011;27703;51.980;5.848;2023-07-28T02:46:29;17.55;;;9.55;;
42018;SDS011;27703;51.980;5.848;2023-07-28T02:48:54;16.90;;;10.75;;
42018;SDS011;27703;51.980;5.848;2023-07-28T02:51:20;18.38;;;12.32;;
42018;SDS011;27703;51.980;5.848;2023-07-28T02:53:46;19.05;;;11.93;;
42018;SDS011;27703;51.980;5.848;2023-07-28T02:56:11;16.08;;;10.55;;
42018;SDS011;27703;51.980;5.848;2023-07-28T02:58:37;18.35;;;11.60;;
42018;SDS011;27703;51.980;5.848;2023-07-28T03:01:02;16.75;;;10.38;;
42018;SDS011;27703;51.980;5.848;2023-07-28T03:03:28;16.00;;;10.13;;
42018;SDS011;27703;51.980;5.848;2023-07-28T03:05:54;12.73;;;8.98;;
42018;SDS011;27703;51.980;5.848;2023-07-28T03:08:20;12.40;;;8.65;;
42018;SDS011;27703;51.980;5.848;2023-07-28T03:10:46;12.55;;;8.73;;
42018;SDS011;27703;51.980;5.848;2023-07-28T03:13:11;13.60;;;8.32;;
42018;SDS011;27703;51.980;5.848;2023-07-28T03:15:37;16.50;;;10.65;;
42018;SDS011;27703;51.980;5.848;2023-07-28T03:18:02;21.73;;;13.32;;
42018;SDS011;27703;51.980;5.848;2023-07-28T03:20:28;21.15;;;12.07;;
42018;SDS011;27703;51.980;5.848;2023-07-28T03:22:54;15.07;;;10.88;;
42018;SDS011;27703;51.980;5.848;2023-07-28T03:25:20;21.20;;;13.50;;
42018;SDS011;27703;51.980;5.848;2023-07-28T03:27:45;25.52;;;15.35;;
42018;SDS011;27703;51.980;5.848;2023-07-28T03:30:11;20.27;;;12.52;;
42018;SDS011;27703;51.980;5.848;2023-07-28T03:32:37;18.17;;;12.80;;
42018;SDS011;27703;51.980;5.848;2023-07-28T03:35:02;18.70;;;12.55;;
42018;SDS011;27703;51.980;5.848;2023-07-28T03:37:30;21.35;;;14.02;;
42018;SDS011;27703;51.980;5.848;2023-07-28T03:39:56;25.23;;;14.70;;
42018;SDS011;27703;51.980;5.848;2023-07-28T03:42:22;23.10;;;14.05;;
42018;SDS011;27703;51.980;5.848;2023-07-28T03:44:48;17.50;;;12.88;;
42018;SDS011;27703;51.980;5.848;2023-07-28T03:47:13;19.13;;;12.63;;
42018;SDS011;27703;51.980;5.848;2023-07-28T03:49:39;27.30;;;15.25;;
42018;SDS011;27703;51.980;5.848;2023-07-28T03:52:05;24.67;;;14.05;;
42018;SDS011;27703;51.980;5.848;2023-07-28T03:54:30;22.80;;;13.75;;
42018;SDS011;27703;51.980;5.848;2023-07-28T03:56:56;19.65;;;13.02;;
42018;SDS011;27703;51.980;5.848;2023-07-28T03:59:22;25.45;;;14.57;;
42018;SDS011;27703;51.980;5.848;2023-07-28T04:01:47;22.13;;;12.88;;
42018;SDS011;27703;51.980;5.848;2023-07-28T04:04:13;26.98;;;14.90;;
42018;SDS011;27703;51.980;5.848;2023-07-28T04:06:42;26.15;;;13.25;;
42018;SDS011;27703;51.980;5.848;2023-07-28T04:09:09;30.45;;;17.38;;
42018;SDS011;27703;51.980;5.848;2023-07-28T04:11:37;29.98;;;16.40;;
42018;SDS011;27703;51.980;5.848;2023-07-28T04:14:02;27.95;;;16.77;;
42018;SDS011;27703;51.980;5.848;2023-07-28T04:16:28;22.90;;;15.23;;
42018;SDS011;27703;51.980;5.848;2023-07-28T04:18:54;27.98;;;16.15;;
42018;SDS011;27703;51.980;5.848;2023-07-28T04:21:21;29.30;;;16.33;;
42018;SDS011;27703;51.980;5.848;2023-07-28T04:23:46;25.20;;;15.10;;
42018;SDS011;27703;51.980;5.848;2023-07-28T04:26:12;32.47;;;14.90;;
42018;SDS011;27703;51.980;5.848;2023-07-28T04:28:37;31.30;;;18.33;;
42018;SDS011;27703;51.980;5.848;2023-07-28T04:31:03;25.83;;;14.63;;
42018;SDS011;27703;51.980;5.848;2023-07-28T04:33:28;29.08;;;14.90;;
42018;SDS011;27703;51.980;5.848;2023-07-28T04:35:54;32.72;;;16.33;;
42018;SDS011;27703;51.980;5.848;2023-07-28T04:38:19;29.80;;;16.10;;
42018;SDS011;27703;51.980;5.848;2023-07-28T04:40:45;28.33;;;15.75;;
42018;SDS011;27703;51.980;5.848;2023-07-28T04:43:11;30.40;;;18.17;;
42018;SDS011;27703;51.980;5.848;2023-07-28T04:45:36;27.50;;;16.23;;
42018;SDS011;27703;51.980;5.848;2023-07-28T04:48:02;32.58;;;16.17;;
42018;SDS011;27703;51.980;5.848;2023-07-28T04:50:28;24.48;;;13.73;;
42018;SDS011;27703;51.980;5.848;2023-07-28T04:52:54;23.75;;;14.27;;
42018;SDS011;27703;51.980;5.848;2023-07-28T04:55:19;20.02;;;11.95;;
42018;SDS011;27703;51.980;5.848;2023-07-28T04:57:45;31.92;;;16.85;;
42018;SDS011;27703;51.980;5.848;2023-07-28T05:00:11;28.17;;;15.65;;
42018;SDS011;27703;51.980;5.848;2023-07-28T05:02:37;32.22;;;16.13;;
42018;SDS011;27703;51.980;5.848;2023-07-28T05:05:02;27.05;;;15.00;;
42018;SDS011;27703;51.980;5.848;2023-07-28T05:07:28;31.27;;;17.92;;
42018;SDS011;27703;51.980;5.848;2023-07-28T05:09:54;33.20;;;18.15;;
42018;SDS011;27703;51.980;5.848;2023-07-28T05:12:19;33.65;;;18.48;;
42018;SDS011;27703;51.980;5.848;2023-07-28T05:14:45;32.25;;;18.85;;
42018;SDS011;27703;51.980;5.848;2023-07-28T05:17:11;33.38;;;19.65;;
42018;SDS011;27703;51.980;5.848;2023-07-28T05:19:36;35.00;;;20.02;;
42018;SDS011;27703;51.980;5.848;2023-07-28T05:22:02;35.65;;;19.58;;
42018;SDS011;27703;51.980;5.848;2023-07-28T05:24:28;35.10;;;19.48;;
42018;SDS011;27703;51.980;5.848;2023-07-28T05:26:54;33.58;;;18.13;;
42018;SDS011;27703;51.980;5.848;2023-07-28T05:29:19;34.53;;;18.10;;
42018;SDS011;27703;51.980;5.848;2023-07-28T05:31:45;35.38;;;20.02;;
42018;SDS011;27703;51.980;5.848;2023-07-28T05:34:10;36.58;;;19.08;;
42018;SDS011;27703;51.980;5.848;2023-07-28T05:36:38;37.95;;;19.30;;
42018;SDS011;27703;51.980;5.848;2023-07-28T05:39:04;33.47;;;18.05;;
42018;SDS011;27703;51.980;5.848;2023-07-28T05:41:29;35.13;;;20.13;;
42018;SDS011;27703;51.980;5.848;2023-07-28T05:43:55;35.65;;;18.88;;
42018;SDS011;27703;51.980;5.848;2023-07-28T05:46:21;32.55;;;18.58;;
42018;SDS011;27703;51.980;5.848;2023-07-28T05:48:46;39.05;;;22.55;;
42018;SDS011;27703;51.980;5.848;2023-07-28T05:51:12;38.03;;;20.65;;
42018;SDS011;27703;51.980;5.848;2023-07-28T05:53:38;32.83;;;19.15;;
42018;SDS011;27703;51.980;5.848;2023-07-28T05:56:03;35.20;;;19.05;;
42018;SDS011;27703;51.980;5.848;2023-07-28T05:58:29;31.85;;;18.38;;
42018;SDS011;27703;51.980;5.848;2023-07-28T06:00:55;35.05;;;19.75;;
42018;SDS011;27703;51.980;5.848;2023-07-28T06:03:21;43.88;;;21.35;;
42018;SDS011;27703;51.980;5.848;2023-07-28T06:05:47;31.23;;;18.05;;
42018;SDS011;27703;51.980;5.848;2023-07-28T06:08:13;32.78;;;18.50;;
42018;SDS011;27703;51.980;5.848;2023-07-28T06:10:38;27.45;;;17.40;;
42018;SDS011;27703;51.980;5.848;2023-07-28T06:13:04;27.52;;;18.35;;
42018;SDS011;27703;51.980;5.848;2023-07-28T06:15:30;31.88;;;19.13;;
42018;SDS011;27703;51.980;5.848;2023-07-28T06:17:56;36.15;;;19.73;;
42018;SDS011;27703;51.980;5.848;2023-07-28T06:20:22;30.05;;;17.83;;
42018;SDS011;27703;51.980;5.848;2023-07-28T06:22:48;26.45;;;16.17;;
42018;SDS011;27703;51.980;5.848;2023-07-28T06:25:13;34.72;;;18.13;;
42018;SDS011;27703;51.980;5.848;2023-07-28T06:27:39;36.40;;;19.88;;
42018;SDS011;27703;51.980;5.848;2023-07-28T06:30:05;29.73;;;17.88;;
42018;SDS011;27703;51.980;5.848;2023-07-28T06:32:31;25.23;;;16.63;;
42018;SDS011;27703;51.980;5.848;2023-07-28T06:34:57;34.08;;;18.33;;
42018;SDS011;27703;51.980;5.848;2023-07-28T06:37:22;31.80;;;17.60;;
42018;SDS011;27703;51.980;5.848;2023-07-28T06:39:48;29.13;;;17.60;;
42018;SDS011;27703;51.980;5.848;2023-07-28T06:42:14;34.13;;;20.65;;
42018;SDS011;27703;51.980;5.848;2023-07-28T06:44:41;34.85;;;20.63;;
42018;SDS011;27703;51.980;5.848;2023-07-28T06:47:07;36.58;;;20.40;;
42018;SDS011;27703;51.980;5.848;2023-07-28T06:49:33;31.58;;;18.08;;
42018;SDS011;27703;51.980;5.848;2023-07-28T06:51:58;33.97;;;19.83;;
42018;SDS011;27703;51.980;5.848;2023-07-28T06:54:24;28.48;;;17.85;;
42018;SDS011;27703;51.980;5.848;2023-07-28T06:56:50;31.83;;;19.42;;
42018;SDS011;27703;51.980;5.848;2023-07-28T06:59:15;33.90;;;18.77;;
42018;SDS011;27703;51.980;5.848;2023-07-28T07:01:41;39.63;;;21.75;;
42018;SDS011;27703;51.980;5.848;2023-07-28T07:04:06;35.08;;;21.15;;
42018;SDS011;27703;51.980;5.848;2023-07-28T07:06:32;32.08;;;19.95;;
42018;SDS011;27703;51.980;5.848;2023-07-28T07:08:58;37.90;;;20.85;;
42018;SDS011;27703;51.980;5.848;2023-07-28T07:11:23;33.75;;;19.90;;
42018;SDS011;27703;51.980;5.848;2023-07-28T07:13:49;37.20;;;20.02;;
42018;SDS011;27703;51.980;5.848;2023-07-28T07:16:17;32.53;;;18.33;;
42018;SDS011;27703;51.980;5.848;2023-07-28T07:18:43;29.20;;;18.55;;
42018;SDS011;27703;51.980;5.848;2023-07-28T07:21:09;31.42;;;18.75;;
42018;SDS011;27703;51.980;5.848;2023-07-28T07:23:35;36.92;;;21.27;;
42018;SDS011;27703;51.980;5.848;2023-07-28T07:26:01;35.60;;;20.45;;
42018;SDS011;27703;51.980;5.848;2023-07-28T07:28:26;40.53;;;20.80;;
42018;SDS011;27703;51.980;5.848;2023-07-28T07:30:53;33.85;;;19.48;;
42018;SDS011;27703;51.980;5.848;2023-07-28T07:33:23;27.40;;;17.85;;
42018;SDS011;27703;51.980;5.848;2023-07-28T07:35:48;31.77;;;19.33;;
42018;SDS011;27703;51.980;5.848;2023-07-28T07:38:14;31.92;;;17.23;;
42018;SDS011;27703;51.980;5.848;2023-07-28T07:40:39;26.90;;;18.15;;
42018;SDS011;27703;51.980;5.848;2023-07-28T07:43:05;32.90;;;18.35;;
42018;SDS011;27703;51.980;5.848;2023-07-28T07:45:31;30.35;;;17.40;;
42018;SDS011;27703;51.980;5.848;2023-07-28T07:47:57;26.98;;;16.95;;
42018;SDS011;27703;51.980;5.848;2023-07-28T07:50:25;26.40;;;17.05;;
42018;SDS011;27703;51.980;5.848;2023-07-28T07:52:50;23.95;;;15.95;;
42018;SDS011;27703;51.980;5.848;2023-07-28T07:55:16;24.75;;;16.15;;
42018;SDS011;27703;51.980;5.848;2023-07-28T07:57:42;26.95;;;15.75;;
42018;SDS011;27703;51.980;5.848;2023-07-28T08:00:07;27.27;;;16.23;;
42018;SDS011;27703;51.980;5.848;2023-07-28T08:02:34;24.85;;;14.45;;
42018;SDS011;27703;51.980;5.848;2023-07-28T08:05:00;28.10;;;15.50;;
42018;SDS011;27703;51.980;5.848;2023-07-28T08:07:25;28.15;;;14.63;;
42018;SDS011;27703;51.980;5.848;2023-07-28T08:09:51;26.40;;;14.70;;
42018;SDS011;27703;51.980;5.848;2023-07-28T08:12:17;25.73;;;16.10;;
42018;SDS011;27703;51.980;5.848;2023-07-28T08:14:43;24.02;;;15.57;;
42018;SDS011;27703;51.980;5.848;2023-07-28T08:17:10;24.83;;;14.65;;
42018;SDS011;27703;51.980;5.848;2023-07-28T08:19:36;23.52;;;15.23;;
42018;SDS011;27703;51.980;5.848;2023-07-28T08:22:02;21.92;;;14.13;;
42018;SDS011;27703;51.980;5.848;2023-07-28T08:24:31;23.00;;;14.60;;
42018;SDS011;27703;51.980;5.848;2023-07-28T08:26:57;20.10;;;14.15;;
42018;SDS011;27703;51.980;5.848;2023-07-28T08:29:22;26.55;;;16.45;;
42018;SDS011;27703;51.980;5.848;2023-07-28T08:31:48;25.20;;;15.13;;
42018;SDS011;27703;51.980;5.848;2023-07-28T08:34:13;23.45;;;14.88;;
42018;SDS011;27703;51.980;5.848;2023-07-28T08:36:40;19.45;;;13.43;;
42018;SDS011;27703;51.980;5.848;2023-07-28T08:39:06;21.52;;;13.82;;
42018;SDS011;27703;51.980;5.848;2023-07-28T08:41:31;24.58;;;14.45;;
42018;SDS011;27703;51.980;5.848;2023-07-28T08:43:57;21.75;;;13.52;;
42018;SDS011;27703;51.980;5.848;2023-07-28T08:46:23;21.05;;;13.52;;
42018;SDS011;27703;51.980;5.848;2023-07-28T08:48:49;19.40;;;13.25;;
42018;SDS011;27703;51.980;5.848;2023-07-28T08:51:14;20.33;;;13.15;;
42018;SDS011;27703;51.980;5.848;2023-07-28T08:53:40;18.17;;;12.50;;
42018;SDS011;27703;51.980;5.848;2023-07-28T08:56:06;18.10;;;12.15;;
42018;SDS011;27703;51.980;5.848;2023-07-28T08:58:31;20.20;;;13.75;;
42018;SDS011;27703;51.980;5.848;2023-07-28T09:00:57;17.50;;;11.95;;
42018;SDS011;27703;51.980;5.848;2023-07-28T09:03:26;19.85;;;12.02;;
42018;SDS011;27703;51.980;5.848;2023-07-28T09:05:54;18.30;;;12.10;;
42018;SDS011;27703;51.980;5.848;2023-07-28T09:08:25;17.38;;;12.65;;
42018;SDS011;27703;51.980;5.848;2023-07-28T09:10:50;14.05;;;11.20;;
42018;SDS011;27703;51.980;5.848;2023-07-28T09:13:17;16.02;;;10.90;;
42018;SDS011;27703;51.980;5.848;2023-07-28T09:15:43;13.75;;;10.23;;
42018;SDS011;27703;51.980;5.848;2023-07-28T09:18:13;19.15;;;11.93;;
42018;SDS011;27703;51.980;5.848;2023-07-28T09:20:40;15.43;;;10.85;;
42018;SDS011;27703;51.980;5.848;2023-07-28T09:23:07;17.27;;;11.60;;
42018;SDS011;27703;51.980;5.848;2023-07-28T09:25:37;15.15;;;12.05;;
42018;SDS011;27703;51.980;5.848;2023-07-28T09:28:03;15.32;;;12.30;;
42018;SDS011;27703;51.980;5.848;2023-07-28T09:30:42;21.50;;;13.63;;
42018;SDS011;27703;51.980;5.848;2023-07-28T09:33:12;16.77;;;12.60;;
42018;SDS011;27703;51.980;5.848;2023-07-28T09:35:48;18.02;;;12.60;;
42018;SDS011;27703;51.980;5.848;2023-07-28T09:38:15;17.77;;;12.20;;
42018;SDS011;27703;51.980;5.848;2023-07-28T09:40:41;16.98;;;12.48;;
42018;SDS011;27703;51.980;5.848;2023-07-28T09:43:08;16.00;;;11.20;;
42018;SDS011;27703;51.980;5.848;2023-07-28T09:45:33;14.43;;;10.35;;
42018;SDS011;27703;51.980;5.848;2023-07-28T09:48:01;15.38;;;10.70;;
42018;SDS011;27703;51.980;5.848;2023-07-28T09:50:29;15.93;;;11.30;;
42018;SDS011;27703;51.980;5.848;2023-07-28T09:52:58;18.33;;;12.05;;
42018;SDS011;27703;51.980;5.848;2023-07-28T09:55:26;14.40;;;10.85;;
42018;SDS011;27703;51.980;5.848;2023-07-28T09:57:54;13.80;;;10.63;;
42018;SDS011;27703;51.980;5.848;2023-07-28T10:00:21;13.75;;;11.13;;
42018;SDS011;27703;51.980;5.848;2023-07-28T10:02:48;16.92;;;12.52;;
42018;SDS011;27703;51.980;5.848;2023-07-28T10:05:15;17.77;;;13.82;;
42018;SDS011;27703;51.980;5.848;2023-07-28T10:07:41;16.77;;;13.02;;
42018;SDS011;27703;51.980;5.848;2023-07-28T10:10:09;12.45;;;9.75;;
42018;SDS011;27703;51.980;5.848;2023-07-28T10:12:46;15.00;;;10.95;;
42018;SDS011;27703;51.980;5.848;2023-07-28T10:15:16;14.05;;;11.18;;
42018;SDS011;27703;51.980;5.848;2023-07-28T10:17:43;17.65;;;11.60;;
42018;SDS011;27703;51.980;5.848;2023-07-28T10:20:32;15.90;;;11.45;;
42018;SDS011;27703;51.980;5.848;2023-07-28T10:25:38;16.25;;;11.40;;
42018;SDS011;27703;51.980;5.848;2023-07-28T10:28:05;13.90;;;11.02;;
42018;SDS011;27703;51.980;5.848;2023-07-28T10:30:50;14.00;;;11.15;;
42018;SDS011;27703;51.980;5.848;2023-07-28T10:33:30;15.88;;;10.85;;
42018;SDS011;27703;51.980;5.848;2023-07-28T10:36:10;13.48;;;10.43;;
42018;SDS011;27703;51.980;5.848;2023-07-28T10:38:36;12.13;;;9.55;;
42018;SDS011;27703;51.980;5.848;2023-07-28T10:41:12;10.13;;;8.52;;
42018;SDS011;27703;51.980;5.848;2023-07-28T10:43:39;11.82;;;9.95;;
42018;SDS011;27703;51.980;5.848;2023-07-28T10:46:07;12.00;;;9.65;;
42018;SDS011;27703;51.980;5.848;2023-07-28T10:48:34;11.65;;;9.80;;
42018;SDS011;27703;51.980;5.848;2023-07-28T10:51:01;13.80;;;11.45;;
42018;SDS011;27703;51.980;5.848;2023-07-28T10:53:26;13.18;;;11.50;;
42018;SDS011;27703;51.980;5.848;2023-07-28T10:55:52;11.93;;;10.02;;
42018;SDS011;27703;51.980;5.848;2023-07-28T10:58:18;9.75;;;8.73;;
42018;SDS011;27703;51.980;5.848;2023-07-28T11:00:45;13.52;;;11.35;;
42018;SDS011;27703;51.980;5.848;2023-07-28T11:03:10;13.70;;;10.73;;
42018;SDS011;27703;51.980;5.848;2023-07-28T11:05:37;12.60;;;10.40;;
42018;SDS011;27703;51.980;5.848;2023-07-28T11:08:03;14.27;;;10.75;;
42018;SDS011;27703;51.980;5.848;2023-07-28T11:10:32;12.30;;;10.20;;
42018;SDS011;27703;51.980;5.848;2023-07-28T11:12:59;10.48;;;9.38;;
42018;SDS011;27703;51.980;5.848;2023-07-28T11:15:26;12.07;;;9.40;;
42018;SDS011;27703;51.980;5.848;2023-07-28T11:17:52;9.75;;;8.07;;
42018;SDS011;27703;51.980;5.848;2023-07-28T11:20:19;9.63;;;8.35;;
42018;SDS011;27703;51.980;5.848;2023-07-28T11:22:46;9.23;;;7.47;;
42018;SDS011;27703;51.980;5.848;2023-07-28T11:25:17;7.47;;;6.78;;
42018;SDS011;27703;51.980;5.848;2023-07-28T11:27:44;12.18;;;9.40;;
42018;SDS011;27703;51.980;5.848;2023-07-28T11:30:11;10.20;;;9.15;;
42018;SDS011;27703;51.980;5.848;2023-07-28T11:32:37;8.95;;;7.15;;
42018;SDS011;27703;51.980;5.848;2023-07-28T11:35:07;10.32;;;9.23;;
42018;SDS011;27703;51.980;5.848;2023-07-28T11:37:34;10.27;;;9.27;;
42018;SDS011;27703;51.980;5.848;2023-07-28T11:40:01;14.88;;;10.18;;
42018;SDS011;27703;51.980;5.848;2023-07-28T11:42:31;10.75;;;9.70;;
42018;SDS011;27703;51.980;5.848;2023-07-28T11:45:02;12.13;;;10.07;;
42018;SDS011;27703;51.980;5.848;2023-07-28T11:47:29;13.15;;;11.55;;
42018;SDS011;27703;51.980;5.848;2023-07-28T11:49:55;16.40;;;10.88;;
42018;SDS011;27703;51.980;5.848;2023-07-28T11:52:23;10.65;;;8.50;;
42018;SDS011;27703;51.980;5.848;2023-07-28T11:54:51;10.00;;;8.18;;
42018;SDS011;27703;51.980;5.848;2023-07-28T11:57:17;11.27;;;8.15;;
42018;SDS011;27703;51.980;5.848;2023-07-28T11:59:43;9.25;;;8.35;;
42018;SDS011;27703;51.980;5.848;2023-07-28T12:02:09;10.43;;;9.10;;
42018;SDS011;27703;51.980;5.848;2023-07-28T12:04:36;9.40;;;7.82;;
42018;SDS011;27703;51.980;5.848;2023-07-28T12:07:10;12.73;;;9.52;;
42018;SDS011;27703;51.980;5.848;2023-07-28T12:12:12;7.43;;;6.72;;
42018;SDS011;27703;51.980;5.848;2023-07-28T12:14:38;9.73;;;8.45;;
42018;SDS011;27703;51.980;5.848;2023-07-28T12:17:11;8.40;;;6.93;;
42018;SDS011;27703;51.980;5.848;2023-07-28T12:19:41;7.35;;;6.65;;
42018;SDS011;27703;51.980;5.848;2023-07-28T12:22:08;8.98;;;7.32;;
42018;SDS011;27703;51.980;5.848;2023-07-28T12:24:33;13.15;;;9.88;;
42018;SDS011;27703;51.980;5.848;2023-07-28T12:26:59;9.02;;;8.00;;
42018;SDS011;27703;51.980;5.848;2023-07-28T12:29:24;8.10;;;7.30;;
42018;SDS011;27703;51.980;5.848;2023-07-28T12:31:50;7.35;;;6.53;;
42018;SDS011;27703;51.980;5.848;2023-07-28T12:34:16;10.55;;;7.95;;
42018;SDS011;27703;51.980;5.848;2023-07-28T12:36:41;9.35;;;7.90;;
42018;SDS011;27703;51.980;5.848;2023-07-28T12:39:07;10.23;;;8.25;;
42018;SDS011;27703;51.980;5.848;2023-07-28T12:41:33;6.28;;;5.65;;
42018;SDS011;27703;51.980;5.848;2023-07-28T12:43:58;7.32;;;6.53;;
42018;SDS011;27703;51.980;5.848;2023-07-28T12:46:24;6.57;;;5.20;;
42018;SDS011;27703;51.980;5.848;2023-07-28T12:48:49;5.60;;;5.03;;
42018;SDS011;27703;51.980;5.848;2023-07-28T12:51:15;6.72;;;5.65;;
42018;SDS011;27703;51.980;5.848;2023-07-28T12:53:41;8.75;;;6.20;;
42018;SDS011;27703;51.980;5.848;2023-07-28T12:56:06;5.57;;;4.78;;
42018;SDS011;27703;51.980;5.848;2023-07-28T12:58:32;4.80;;;4.25;;
42018;SDS011;27703;51.980;5.848;2023-07-28T13:00:58;5.13;;;3.75;;
42018;SDS011;27703;51.980;5.848;2023-07-28T13:03:26;5.70;;;4.35;;
42018;SDS011;27703;51.980;5.848;2023-07-28T13:05:53;6.10;;;4.50;;
42018;SDS011;27703;51.980;5.848;2023-07-28T13:08:19;4.43;;;3.47;;
42018;SDS011;27703;51.980;5.848;2023-07-28T13:10:44;6.20;;;4.38;;
42018;SDS011;27703;51.980;5.848;2023-07-28T13:13:10;4.50;;;4.05;;
42018;SDS011;27703;51.980;5.848;2023-07-28T13:15:35;7.07;;;6.10;;
42018;SDS011;27703;51.980;5.848;2023-07-28T13:18:01;5.47;;;4.97;;
42018;SDS011;27703;51.980;5.848;2023-07-28T13:20:26;4.60;;;4.20;;
42018;SDS011;27703;51.980;5.848;2023-07-28T13:22:52;6.07;;;4.60;;
42018;SDS011;27703;51.980;5.848;2023-07-28T13:25:18;4.70;;;4.25;;
42018;SDS011;27703;51.980;5.848;2023-07-28T13:27:43;4.88;;;4.05;;
42018;SDS011;27703;51.980;5.848;2023-07-28T13:30:09;4.35;;;3.38;;
42018;SDS011;27703;51.980;5.848;2023-07-28T13:32:35;3.30;;;3.00;;
42018;SDS011;27703;51.980;5.848;2023-07-28T13:35:00;4.85;;;3.88;;
42018;SDS011;27703;51.980;5.848;2023-07-28T13:37:26;4.40;;;2.85;;
42018;SDS011;27703;51.980;5.848;2023-07-28T13:39:52;4.45;;;2.97;;
42018;SDS011;27703;51.980;5.848;2023-07-28T13:42:17;3.70;;;2.78;;
42018;SDS011;27703;51.980;5.848;2023-07-28T13:44:43;3.42;;;3.13;;
42018;SDS011;27703;51.980;5.848;2023-07-28T13:47:09;3.58;;;2.40;;
42018;SDS011;27703;51.980;5.848;2023-07-28T13:49:34;2.75;;;2.30;;
42018;SDS011;27703;51.980;5.848;2023-07-28T13:52:02;4.78;;;2.13;;
42018;SDS011;27703;51.980;5.848;2023-07-28T13:54:28;2.20;;;1.30;;
42018;SDS011;27703;51.980;5.848;2023-07-28T13:56:54;4.47;;;1.38;;
42018;SDS011;27703;51.980;5.848;2023-07-28T13:59:19;2.53;;;1.60;;
42018;SDS011;27703;51.980;5.848;2023-07-28T14:01:45;5.00;;;3.13;;
42018;SDS011;27703;51.980;5.848;2023-07-28T14:04:10;3.83;;;2.67;;
42018;SDS011;27703;51.980;5.848;2023-07-28T14:06:36;5.22;;;2.70;;
42018;SDS011;27703;51.980;5.848;2023-07-28T14:09:02;3.15;;;1.98;;
42018;SDS011;27703;51.980;5.848;2023-07-28T14:11:28;2.40;;;1.77;;
42018;SDS011;27703;51.980;5.848;2023-07-28T14:13:53;2.92;;;2.30;;
42018;SDS011;27703;51.980;5.848;2023-07-28T14:16:19;2.65;;;1.80;;
42018;SDS011;27703;51.980;5.848;2023-07-28T14:18:44;2.13;;;1.85;;
42018;SDS011;27703;51.980;5.848;2023-07-28T14:21:12;3.20;;;2.28;;
42018;SDS011;27703;51.980;5.848;2023-07-28T14:23:38;2.35;;;1.92;;
42018;SDS011;27703;51.980;5.848;2023-07-28T14:26:04;3.35;;;2.30;;
42018;SDS011;27703;51.980;5.848;2023-07-28T14:28:29;2.67;;;2.03;;
42018;SDS011;27703;51.980;5.848;2023-07-28T14:30:57;3.47;;;1.85;;
42018;SDS011;27703;51.980;5.848;2023-07-28T14:33:23;2.08;;;1.40;;
42018;SDS011;27703;51.980;5.848;2023-07-28T14:35:49;2.22;;;1.50;;